Página principal
METAR-TAF:

METAR-TAF

Aeroportos :

Cambridge, Inglaterra

latitude: 52-12N, longitude: 000-11E, altura: 15 m

Observação actual do tempo

O boletim foi feito há 12 horas e 26 minutos, às 17:50 UTC
Vento 4 kt de es-nordeste
Temperatura 2°C
Humidade 80%
Pressão 1033 hPa
Visibilidade 10 km ou mais
sem nuvens abaixo de 1500 metros e sem cumulonimbus

METAR: EGSC 201750Z 06004KT CAVOK 02/M01 Q1033

Hora: 06:16 (06:16 UTC)

Previsão

O boletim foi feito há 13 horas e 19 minutos, às 16:57 UTC
Previsão válida de 20 às 18 UTC a 20 às 21 UTC
Vento 5 kt de nordeste
Visibilidade 10 km ou mais
Poucas nuvensa uma altura de 4500 ft
Probabilidade 30%
de 20 às 18 UTC a 20 às 21 UTC
Visibilidade: 7000 m

TAF: EGSC 201657Z 2018/2021 04005KT 9999 FEW045 PROB30 2018/2021 7000

Observações e previsões do tempo de mais de 4000 aeroportos (mensagens METAR e TAF).

As estações disponíveis são os pontos amarelos e vermelhos sobre o mapa.

Mova o rato sobre o mapa para ver o nome da estação.

Depois clique no ponto para visualizar as observações e previsões meteorológicas.

Para alterar o mapa : clique nos botões verdes com uma cruz preta para aumentar o zoom; no botão verde com uma pitada de zoom; ou nas setas verdes para mapas adjacentes.


METAR-TAF: